createdAt,value
2019-05-05T00:00:09.889Z,2.7
2019-05-05T00:01:11.956Z,2.7
2019-05-05T00:02:16.094Z,2.6
2019-05-05T00:03:17.958Z,2.6
2019-05-05T00:04:51.674Z,2.6
2019-05-05T00:05:55.822Z,2.6
2019-05-05T00:06:57.880Z,2.6
2019-05-05T00:07:59.743Z,2.6
2019-05-05T00:09:01.608Z,2.6
2019-05-05T00:10:05.810Z,2.7
2019-05-05T00:11:07.875Z,2.5
2019-05-05T00:12:09.733Z,2.5
2019-05-05T00:14:28.124Z,2.5
2019-05-05T00:15:29.986Z,2.5
2019-05-05T00:16:31.574Z,2.6
2019-05-05T00:17:35.461Z,2.6
2019-05-05T00:18:37.632Z,2.5
2019-05-05T00:19:39.494Z,2.5
2019-05-05T00:20:41.551Z,2.6
2019-05-05T00:21:45.511Z,2.5
2019-05-05T00:22:47.110Z,2.6
2019-05-05T00:23:48.970Z,2.5
2019-05-05T00:24:50.834Z,2.6
2019-05-05T00:25:55.370Z,2.5
2019-05-05T00:26:57.253Z,2.5
2019-05-05T00:27:59.115Z,2.5
2019-05-05T00:30:17.701Z,2.4
2019-05-05T00:31:19.569Z,2.5
2019-05-05T00:32:21.432Z,2.5
2019-05-05T00:33:25.392Z,2.4
2019-05-05T00:34:27.459Z,2.5
2019-05-05T00:35:29.319Z,2.4
2019-05-05T00:36:31.385Z,2.4
2019-05-05T00:37:47.924Z,2.4
2019-05-05T00:38:49.786Z,2.4
2019-05-05T00:40:06.326Z,2.4
2019-05-05T00:41:08.181Z,2.3
2019-05-05T00:42:10.042Z,2.4
2019-05-05T00:43:12.107Z,2.3
2019-05-05T00:44:16.077Z,2.3
2019-05-05T00:45:17.940Z,2.3
2019-05-05T00:46:19.813Z,2.3
2019-05-05T00:47:21.678Z,2.3
2019-05-05T00:48:25.468Z,2.3
2019-05-05T00:50:51.852Z,2.4
2019-05-05T00:51:56.044Z,2.4
2019-05-05T00:52:57.631Z,2.4
2019-05-05T00:53:59.492Z,2.3
2019-05-05T00:55:01.570Z,2.2
2019-05-05T00:56:05.233Z,2.3
2019-05-05T00:57:07.333Z,2.3
2019-05-05T00:58:09.194Z,2.2
2019-05-05T00:59:11.058Z,2.2
2019-05-05T01:00:15.272Z,2.3
2019-05-05T01:01:17.133Z,2.2
2019-05-05T01:02:18.718Z,2.2
2019-05-05T01:03:20.782Z,2.1
2019-05-05T01:04:22.356Z,2.2
2019-05-05T01:05:25.973Z,2.2
2019-05-05T01:06:27.852Z,2.2
2019-05-05T01:07:29.723Z,2.2
2019-05-05T01:08:31.305Z,2.1
2019-05-05T01:09:35.698Z,2.2
2019-05-05T01:10:37.282Z,2.1
2019-05-05T01:11:38.596Z,2.1
2019-05-05T01:12:40.643Z,2
2019-05-05T01:13:42.700Z,2.1
2019-05-05T01:14:46.849Z,2
2019-05-05T01:15:48.719Z,2
2019-05-05T01:16:50.580Z,2.1
2019-05-05T01:17:52.645Z,2.1
2019-05-05T01:18:56.634Z,1.9
2019-05-05T01:20:02.944Z,1.9
2019-05-05T01:21:08.546Z,1.9
2019-05-05T01:22:10.417Z,1.8
2019-05-05T01:23:12.286Z,1.8
2019-05-05T01:24:15.582Z,1.9
2019-05-05T01:25:17.169Z,1.9
2019-05-05T01:26:19.031Z,1.8
2019-05-05T01:27:20.350Z,1.8
2019-05-05T01:28:21.964Z,1.9
2019-05-05T01:29:25.766Z,1.9
2019-05-05T01:30:27.629Z,1.8
2019-05-05T01:31:29.502Z,1.9
2019-05-05T01:32:31.363Z,2
2019-05-05T01:34:52.088Z,2
2019-05-05T01:35:56.526Z,1.9
2019-05-05T01:38:34.052Z,1.9
2019-05-05T01:39:36.060Z,1.8
2019-05-05T01:40:37.815Z,1.9
2019-05-05T01:41:55.687Z,1.9
2019-05-05T01:42:57.552Z,1.8
2019-05-05T01:43:59.413Z,1.8
2019-05-05T01:45:01.277Z,1.7
2019-05-05T01:46:05.380Z,1.8
2019-05-05T01:47:07.236Z,1.8
2019-05-05T01:48:09.096Z,1.8
2019-05-05T01:49:10.959Z,1.8
2019-05-05T01:50:20.558Z,1.7
2019-05-05T01:51:25.382Z,1.6
2019-05-05T01:52:27.249Z,1.7
2019-05-05T01:53:29.112Z,1.6
2019-05-05T01:54:30.986Z,1.6
2019-05-05T01:55:34.675Z,1.7
2019-05-05T01:56:36.626Z,1.7
2019-05-05T01:57:38.684Z,1.8
2019-05-05T01:58:40.543Z,1.7
2019-05-05T01:59:44.904Z,1.6
2019-05-05T02:00:46.803Z,1.6
2019-05-05T02:01:48.660Z,1.7
2019-05-05T02:02:50.668Z,1.7
2019-05-05T02:03:54.642Z,1.6
2019-05-05T02:04:56.696Z,1.7
2019-05-05T02:05:58.474Z,1.6
2019-05-05T02:07:00.332Z,1.7
2019-05-05T02:08:02.196Z,1.6
2019-05-05T02:09:06.259Z,1.6
2019-05-05T02:10:08.124Z,1.7
2019-05-05T02:11:09.977Z,1.7
2019-05-05T02:12:11.838Z,1.8
2019-05-05T02:13:16.218Z,1.7
2019-05-05T02:14:18.067Z,1.6
2019-05-05T02:15:19.929Z,1.7
2019-05-05T02:16:21.791Z,1.6
2019-05-05T02:17:25.708Z,1.7
2019-05-05T02:18:27.575Z,1.6
2019-05-05T02:19:29.210Z,1.7
2019-05-05T02:20:31.343Z,1.6
2019-05-05T02:21:35.476Z,1.7
2019-05-05T02:22:37.341Z,1.7
2019-05-05T02:23:38.927Z,1.5
2019-05-05T02:24:40.791Z,1.6
2019-05-05T02:25:44.853Z,1.7
2019-05-05T02:26:46.697Z,1.5
2019-05-05T02:27:48.753Z,1.6
2019-05-05T02:30:06.793Z,1.6
2019-05-05T02:31:08.649Z,1.7
2019-05-05T02:32:10.226Z,1.6
2019-05-05T02:33:12.088Z,1.7
2019-05-05T02:34:17.004Z,1.6
2019-05-05T02:35:18.869Z,1.5
2019-05-05T02:36:20.725Z,1.6
2019-05-05T02:37:25.328Z,1.6
2019-05-05T02:38:27.205Z,1.7
2019-05-05T02:39:49.859Z,1.7
2019-05-05T02:41:08.508Z,1.6
2019-05-05T02:42:10.363Z,1.6
2019-05-05T02:43:15.174Z,1.5
2019-05-05T02:44:17.312Z,1.7
2019-05-05T02:45:18.914Z,1.5
2019-05-05T02:46:20.755Z,1.7
2019-05-05T02:47:37.290Z,1.6
2019-05-05T02:48:39.162Z,1.6
2019-05-05T02:49:56.264Z,1.5
2019-05-05T02:51:01.977Z,1.5
2019-05-05T02:52:08.407Z,1.6
2019-05-05T02:53:10.481Z,1.7
2019-05-05T02:54:13.652Z,1.7
2019-05-05T02:55:15.580Z,1.5
2019-05-05T02:56:17.189Z,1.6
2019-05-05T02:57:19.047Z,1.6
2019-05-05T02:58:20.810Z,1.6
2019-05-05T02:59:24.868Z,1.6
2019-05-05T03:00:26.739Z,1.6
2019-05-05T03:01:28.780Z,1.6
2019-05-05T03:02:30.641Z,1.6
2019-05-05T03:03:34.332Z,1.6
2019-05-05T03:04:36.212Z,1.6
2019-05-05T03:05:38.077Z,1.6
2019-05-05T03:06:39.938Z,1.5
2019-05-05T03:07:44.094Z,1.5
2019-05-05T03:08:45.957Z,1.4
2019-05-05T03:09:47.821Z,1.5
2019-05-05T03:10:49.682Z,1.5
2019-05-05T03:11:51.546Z,1.4
2019-05-05T03:12:55.611Z,1.4
2019-05-05T03:13:57.199Z,1.4
2019-05-05T03:14:59.059Z,1.4
2019-05-05T03:16:00.641Z,1.4
2019-05-05T03:17:04.648Z,1.4
2019-05-05T03:18:06.513Z,1.5
2019-05-05T03:19:08.103Z,1.5
2019-05-05T03:20:09.961Z,1.5
2019-05-05T03:21:13.809Z,1.5
2019-05-05T03:22:15.792Z,1.4
2019-05-05T03:23:17.828Z,1.5
2019-05-05T03:24:19.690Z,1.4
2019-05-05T03:25:21.556Z,1.5
2019-05-05T03:26:25.499Z,1.5
2019-05-05T03:27:27.364Z,1.5
2019-05-05T03:28:29.101Z,1.4
2019-05-05T03:29:30.962Z,1.5
2019-05-05T03:30:35.638Z,1.4
2019-05-05T03:31:37.600Z,1.4
2019-05-05T03:32:39.473Z,1.4
2019-05-05T03:33:41.335Z,1.4
2019-05-05T03:34:46.747Z,1.4
2019-05-05T03:35:48.619Z,1.5
2019-05-05T03:36:50.479Z,1.4
2019-05-05T03:37:54.561Z,1.4
2019-05-05T03:38:56.413Z,1.3
2019-05-05T03:39:58.275Z,1.3
2019-05-05T03:41:00.331Z,1.4
2019-05-05T03:42:04.452Z,1.4
2019-05-05T03:43:06.313Z,1.4
2019-05-05T03:44:08.191Z,1.4
2019-05-05T03:45:10.108Z,1.3
2019-05-05T03:46:13.565Z,1.4
2019-05-05T03:47:15.169Z,1.3
2019-05-05T03:48:17.032Z,1.4
2019-05-05T03:49:18.896Z,1.4
2019-05-05T03:50:20.479Z,1.3
2019-05-05T03:51:24.642Z,1.2
2019-05-05T03:52:26.697Z,1.4
2019-05-05T03:53:28.280Z,1.3
2019-05-05T03:54:30.342Z,1.3
2019-05-05T03:55:32.204Z,1.5
2019-05-05T03:56:35.588Z,1.3
2019-05-05T03:57:37.188Z,1.3
2019-05-05T03:58:39.047Z,1.2
2019-05-05T03:59:40.907Z,1.3
2019-05-05T04:00:45.130Z,1.2
2019-05-05T04:01:46.991Z,1.2
2019-05-05T04:02:48.852Z,1.2
2019-05-05T04:03:50.718Z,1.3
2019-05-05T04:04:55.056Z,1.2
2019-05-05T04:05:56.993Z,1.2
2019-05-05T04:06:58.852Z,1.3
2019-05-05T04:08:00.919Z,1.3
2019-05-05T04:09:05.271Z,1.2
2019-05-05T04:10:07.133Z,1.2
2019-05-05T04:11:08.717Z,1.2
2019-05-05T04:12:10.582Z,1.2
2019-05-05T04:13:14.336Z,1.2
2019-05-05T04:14:18.325Z,1.2
2019-05-05T04:15:20.695Z,1.2
2019-05-05T04:16:24.897Z,1.2
2019-05-05T04:17:26.678Z,1.2
2019-05-05T04:18:27.968Z,1.2
2019-05-05T04:19:29.830Z,1.3
2019-05-05T04:20:46.074Z,1.4
2019-05-05T04:21:47.935Z,1.2
2019-05-05T04:22:49.800Z,1.2
2019-05-05T04:23:53.475Z,1.2
2019-05-05T04:24:55.432Z,1.2
2019-05-05T04:25:57.295Z,1.1
2019-05-05T04:26:59.166Z,1.1
2019-05-05T04:28:01.017Z,1.4
2019-05-05T04:29:05.535Z,1.3
2019-05-05T04:30:07.416Z,1.3
2019-05-05T04:31:08.996Z,1.2
2019-05-05T04:32:10.855Z,1.3
2019-05-05T04:33:14.549Z,1.3
2019-05-05T04:34:16.133Z,1.4
2019-05-05T04:35:17.995Z,1.2
2019-05-05T04:36:20.051Z,1.3
2019-05-05T04:37:24.099Z,1.4
2019-05-05T04:38:25.952Z,1.4
2019-05-05T04:39:27.814Z,1.4
2019-05-05T04:40:29.928Z,1.4
2019-05-05T04:41:33.286Z,1.5
2019-05-05T04:42:35.586Z,1.3
2019-05-05T04:43:37.447Z,1.5
2019-05-05T04:44:39.022Z,1.5
2019-05-05T04:45:40.887Z,1.5
2019-05-05T04:46:44.982Z,1.5
2019-05-05T04:47:46.843Z,1.6
2019-05-05T04:48:48.894Z,1.5
2019-05-05T04:49:50.940Z,1.6
2019-05-05T04:50:54.655Z,1.7
2019-05-05T04:51:56.526Z,1.6
2019-05-05T04:52:58.590Z,1.6
2019-05-05T04:54:00.462Z,1.5
2019-05-05T04:55:04.624Z,1.7
2019-05-05T04:56:06.493Z,1.6
2019-05-05T04:57:08.080Z,1.6
2019-05-05T04:58:09.947Z,1.7
2019-05-05T04:59:14.432Z,1.6
2019-05-05T05:00:16.081Z,1.8
2019-05-05T05:01:17.958Z,1.7
2019-05-05T05:02:19.826Z,1.7
2019-05-05T05:03:23.779Z,1.7
2019-05-05T05:04:25.505Z,1.9
2019-05-05T05:06:45.591Z,1.8
2019-05-05T05:07:47.453Z,1.8
2019-05-05T05:09:04.880Z,1.8
2019-05-05T05:10:06.746Z,1.8
2019-05-05T05:11:08.603Z,1.8
2019-05-05T05:12:10.647Z,1.9
2019-05-05T05:13:13.820Z,1.8
2019-05-05T05:14:15.805Z,1.9
2019-05-05T05:15:17.667Z,1.9
2019-05-05T05:16:19.252Z,1.9
2019-05-05T05:17:20.835Z,1.9
2019-05-05T05:18:23.990Z,1.9
2019-05-05T05:19:25.995Z,2
2019-05-05T05:20:27.856Z,2.1
2019-05-05T05:21:57.583Z,2
2019-05-05T05:23:05.790Z,2.1
2019-05-05T05:24:07.932Z,2.2
2019-05-05T05:25:09.996Z,2.1
2019-05-05T05:26:14.081Z,2.2
2019-05-05T05:27:15.938Z,2.2
2019-05-05T05:28:17.803Z,2.3
2019-05-05T05:29:19.397Z,2.1
2019-05-05T05:30:21.257Z,2.2
2019-05-05T05:31:25.100Z,2.4
2019-05-05T05:32:27.145Z,2.3
2019-05-05T05:33:29.012Z,2.4
2019-05-05T05:34:30.884Z,2.4
2019-05-05T05:35:35.325Z,2.5
2019-05-05T05:36:36.911Z,2.6
2019-05-05T05:37:38.774Z,2.6
2019-05-05T05:38:40.634Z,2.6
2019-05-05T05:39:44.583Z,2.7
2019-05-05T05:40:46.445Z,2.7
2019-05-05T05:41:48.501Z,2.8
2019-05-05T05:42:50.371Z,2.8
2019-05-05T05:43:51.853Z,2.8
2019-05-05T05:45:08.125Z,3
2019-05-05T05:46:09.992Z,2.9
2019-05-05T05:47:14.179Z,3
2019-05-05T05:48:16.032Z,3.2
2019-05-05T05:49:17.893Z,3.1
2019-05-05T05:50:19.190Z,3.2
2019-05-05T05:51:21.052Z,3.5
2019-05-05T05:52:24.886Z,3.5
2019-05-05T05:53:26.472Z,3.5
2019-05-05T05:54:28.332Z,3.5
2019-05-05T05:55:29.901Z,3.5
2019-05-05T05:56:31.495Z,3.6
2019-05-05T05:57:35.374Z,3.7
2019-05-05T05:58:37.236Z,3.6
2019-05-05T05:59:38.820Z,3.6
2019-05-05T06:00:42.202Z,3.7
2019-05-05T06:01:46.110Z,3.7
2019-05-05T06:02:47.848Z,3.8
2019-05-05T06:03:50.090Z,3.7
2019-05-05T06:04:54.047Z,3.8
2019-05-05T06:05:55.619Z,3.7
2019-05-05T06:06:57.473Z,3.8
2019-05-05T06:07:59.352Z,3.8
2019-05-05T06:09:01.355Z,3.8
2019-05-05T06:10:05.168Z,3.9
2019-05-05T06:11:07.031Z,3.9
2019-05-05T06:12:24.614Z,3.9
2019-05-05T06:13:41.180Z,3.9
2019-05-05T06:14:47.909Z,3.9
2019-05-05T06:15:49.776Z,4
2019-05-05T06:16:51.636Z,4.1
2019-05-05T06:17:55.389Z,4
2019-05-05T06:18:57.250Z,4
2019-05-05T06:19:59.120Z,4.1
2019-05-05T06:21:01.165Z,4
2019-05-05T06:22:05.305Z,3.9
2019-05-05T06:23:07.159Z,3.8
2019-05-05T06:24:09.021Z,3.9
2019-05-05T06:25:10.887Z,4
2019-05-05T06:26:16.793Z,3.9
2019-05-05T06:27:18.862Z,3.9
2019-05-05T06:28:20.723Z,4
2019-05-05T06:29:24.302Z,4
2019-05-05T06:30:26.222Z,4
2019-05-05T06:31:28.282Z,4.1
2019-05-05T06:32:29.867Z,4
2019-05-05T06:33:31.448Z,4
2019-05-05T06:34:35.573Z,4
2019-05-05T06:35:37.623Z,4.2
2019-05-05T06:36:38.932Z,4.2
2019-05-05T06:37:40.793Z,4.2
2019-05-05T06:38:47.151Z,4.3
2019-05-05T06:39:49.018Z,4.3
2019-05-05T06:40:50.898Z,4.5
2019-05-05T06:41:54.660Z,4.4
2019-05-05T06:42:56.529Z,4.4
2019-05-05T06:43:58.391Z,4.4
2019-05-05T06:45:00.256Z,4.4
2019-05-05T06:46:03.872Z,4.3
2019-05-05T06:47:06.099Z,4.4
2019-05-05T06:48:07.611Z,4.6
2019-05-05T06:49:09.476Z,4.4
2019-05-05T06:50:11.345Z,4.6
2019-05-05T06:51:15.332Z,4.5
2019-05-05T06:52:17.145Z,4.7
2019-05-05T06:53:19.205Z,4.6
2019-05-05T06:54:20.991Z,4.7
2019-05-05T06:55:25.017Z,5
2019-05-05T06:56:26.603Z,4.8
2019-05-05T06:57:28.381Z,4.9
2019-05-05T06:58:30.258Z,4.8
2019-05-05T06:59:46.773Z,5
2019-05-05T07:00:48.648Z,5.1
2019-05-05T07:01:50.513Z,5.1
2019-05-05T07:02:55.116Z,5.2
2019-05-05T07:03:56.979Z,5.2
2019-05-05T07:04:58.554Z,5.2
2019-05-05T07:06:00.419Z,5.2
2019-05-05T07:07:05.079Z,5.4
2019-05-05T07:08:07.147Z,5.4
2019-05-05T07:09:09.011Z,5.4
2019-05-05T07:10:25.531Z,5.7
2019-05-05T07:11:27.441Z,5.8
2019-05-05T07:12:29.285Z,5.7
2019-05-05T07:13:31.350Z,5.8
2019-05-05T07:14:35.131Z,5.8
2019-05-05T07:15:37.341Z,5.8
2019-05-05T07:16:39.213Z,5.9
2019-05-05T07:17:41.281Z,5.8
2019-05-05T07:18:45.131Z,5.8
2019-05-05T07:19:46.995Z,5.8
2019-05-05T07:20:48.860Z,5.8
2019-05-05T07:21:50.443Z,5.7
2019-05-05T07:22:59.452Z,5.8
2019-05-05T07:24:06.686Z,5.7
2019-05-05T07:25:08.282Z,5.8
2019-05-05T07:26:10.147Z,5.7
2019-05-05T07:27:13.796Z,5.8
2019-05-05T07:28:15.867Z,5.8
2019-05-05T07:30:35.400Z,5.6
2019-05-05T07:31:37.263Z,5.7
2019-05-05T07:32:39.129Z,5.6
2019-05-05T07:33:40.990Z,5.6
2019-05-05T07:34:45.380Z,5.8
2019-05-05T07:35:56.550Z,5.7
2019-05-05T07:37:06.946Z,5.8
2019-05-05T07:38:08.823Z,5.7
2019-05-05T07:39:25.586Z,5.7
2019-05-05T07:40:27.448Z,5.7
2019-05-05T07:41:28.757Z,5.9
2019-05-05T07:42:30.620Z,5.7
2019-05-05T07:43:34.505Z,5.7
2019-05-05T07:44:36.173Z,5.8
2019-05-05T07:45:38.046Z,5.7
2019-05-05T07:46:39.911Z,6
2019-05-05T07:47:43.648Z,5.9
2019-05-05T07:48:48.731Z,6
2019-05-05T07:49:50.596Z,6
2019-05-05T07:51:01.319Z,6
2019-05-05T07:52:06.610Z,6
2019-05-05T07:53:14.091Z,6.1
2019-05-05T07:54:19.368Z,6.1
2019-05-05T07:55:21.232Z,6.1
2019-05-05T07:56:25.176Z,6.3
2019-05-05T07:57:27.042Z,6.2
2019-05-05T07:58:28.624Z,6.2
2019-05-05T07:59:30.489Z,6.2
2019-05-05T08:00:34.507Z,6.3
2019-05-05T08:01:36.095Z,6.2
2019-05-05T08:02:37.960Z,6.3
2019-05-05T08:03:39.267Z,6.4
2019-05-05T08:04:40.860Z,6.4
2019-05-05T08:05:44.818Z,6.4
2019-05-05T08:06:46.677Z,6.3
2019-05-05T08:07:48.541Z,6.3
2019-05-05T08:08:50.409Z,6.5
2019-05-05T08:09:53.689Z,6.3
2019-05-05T08:10:55.688Z,6.4
2019-05-05T08:11:57.552Z,6.4
2019-05-05T08:12:59.328Z,6.5
2019-05-05T08:14:01.394Z,6.5
2019-05-05T08:15:05.420Z,6.5
2019-05-05T08:16:07.007Z,6.5
2019-05-05T08:17:08.595Z,6.5
2019-05-05T08:18:10.469Z,6.6
2019-05-05T08:19:14.767Z,6.7
2019-05-05T08:20:31.296Z,6.7
2019-05-05T08:21:34.990Z,6.9
2019-05-05T08:22:36.576Z,6.8
2019-05-05T08:23:38.692Z,6.7
2019-05-05T08:24:40.554Z,6.6
2019-05-05T08:25:45.351Z,6.7
2019-05-05T08:26:47.317Z,6.6
2019-05-05T08:27:49.303Z,6.7
2019-05-05T08:28:51.163Z,6.8
2019-05-05T08:29:54.865Z,6.9
2019-05-05T08:30:56.728Z,6.9
2019-05-05T08:31:58.594Z,7.1
2019-05-05T08:33:00.649Z,7.1
2019-05-05T08:34:03.812Z,7.1
2019-05-05T08:35:05.755Z,7.1
2019-05-05T08:36:07.329Z,7
2019-05-05T08:37:08.921Z,7.1
2019-05-05T08:38:10.978Z,7.2
2019-05-05T08:39:15.146Z,7.1
2019-05-05T08:40:17.018Z,6.9
2019-05-05T08:41:18.809Z,7.1
2019-05-05T08:42:20.668Z,7.1
2019-05-05T08:43:24.114Z,7.1
2019-05-05T08:44:26.113Z,7
2019-05-05T08:45:28.019Z,7
2019-05-05T08:46:29.882Z,6.9
2019-05-05T08:47:31.927Z,7
2019-05-05T08:48:35.064Z,6.8
2019-05-05T08:49:36.648Z,6.9
2019-05-05T08:50:38.511Z,6.9
2019-05-05T08:51:40.375Z,6.9
2019-05-05T08:52:56.902Z,7.1
2019-05-05T08:53:58.765Z,7.1
2019-05-05T08:55:00.627Z,7.2
2019-05-05T08:56:16.875Z,7.2
2019-05-05T08:57:18.733Z,7.2
2019-05-05T08:58:34.973Z,7.3
2019-05-05T08:59:36.561Z,7.3
2019-05-05T09:00:38.620Z,7.4
2019-05-05T09:01:40.675Z,7.3
2019-05-05T09:02:43.726Z,7.5
2019-05-05T09:03:45.683Z,7.4
2019-05-05T09:04:47.539Z,7.5
2019-05-05T09:05:49.397Z,7.5
2019-05-05T09:06:51.185Z,7.5
2019-05-05T09:09:14.635Z,7.5
2019-05-05T09:10:16.483Z,7.5
2019-05-05T09:11:17.778Z,7.5
2019-05-05T09:12:19.365Z,7.4
2019-05-05T09:13:21.226Z,7.4
2019-05-05T09:14:25.028Z,7.5
2019-05-05T09:15:26.891Z,7.5
2019-05-05T09:16:28.767Z,7.3
2019-05-05T09:17:30.345Z,7.5
2019-05-05T09:18:34.473Z,7.4
2019-05-05T09:19:36.338Z,7.5
2019-05-05T09:20:37.648Z,7.5
2019-05-05T09:21:39.512Z,7.4
2019-05-05T09:22:41.376Z,7.6
2019-05-05T09:23:58.125Z,7.7
2019-05-05T09:25:06.330Z,7.8
2019-05-05T09:26:24.043Z,7.9
2019-05-05T09:27:40.551Z,8
2019-05-05T09:28:44.677Z,7.9
2019-05-05T09:29:46.542Z,7.9
2019-05-05T09:30:48.407Z,8
2019-05-05T09:31:50.460Z,8
2019-05-05T09:32:54.444Z,7.9
2019-05-05T09:33:56.308Z,7.8
2019-05-05T09:34:58.174Z,7.9
2019-05-05T09:36:00.223Z,8
2019-05-05T09:37:03.629Z,8.1
2019-05-05T09:38:05.586Z,8.2
2019-05-05T09:39:06.913Z,8.3
2019-05-05T09:40:09.032Z,8.2
2019-05-05T09:41:10.895Z,8.5
2019-05-05T09:42:14.775Z,8.6
2019-05-05T09:43:16.353Z,8.6
2019-05-05T09:44:18.217Z,8.6
2019-05-05T09:45:19.531Z,8.7
2019-05-05T09:46:23.514Z,8.7
2019-05-05T09:47:25.574Z,8.8
2019-05-05T09:48:27.357Z,8.8
2019-05-05T09:49:29.230Z,8.9
2019-05-05T09:50:30.817Z,8.9
2019-05-05T09:51:34.877Z,9.1
2019-05-05T09:52:36.861Z,9
2019-05-05T09:53:38.725Z,8.9
2019-05-05T09:54:40.594Z,8.9
2019-05-05T09:55:44.693Z,9.1
2019-05-05T09:56:46.559Z,9.1
2019-05-05T09:58:05.068Z,8.9
2019-05-05T09:59:06.993Z,8.9
2019-05-05T10:00:08.580Z,8.9
2019-05-05T10:01:10.445Z,8.8
2019-05-05T10:02:14.454Z,8.7
2019-05-05T10:03:16.027Z,8.6
2019-05-05T10:04:17.619Z,8.6
2019-05-05T10:05:19.485Z,8.4
2019-05-05T10:06:21.350Z,8.2
2019-05-05T10:07:25.268Z,8.2
2019-05-05T10:08:27.135Z,8.1
2019-05-05T10:09:29.000Z,8
2019-05-05T10:10:31.053Z,8
2019-05-05T10:11:35.492Z,8
2019-05-05T10:12:37.139Z,8
2019-05-05T10:13:38.722Z,8
2019-05-05T10:14:40.589Z,8
2019-05-05T10:15:44.288Z,7.9
2019-05-05T10:16:46.284Z,8.1
2019-05-05T10:17:48.150Z,7.9
2019-05-05T10:18:50.016Z,8
2019-05-05T10:19:51.893Z,8
2019-05-05T10:20:56.015Z,8.1
2019-05-05T10:21:57.880Z,8.1
2019-05-05T10:22:59.942Z,8.2
2019-05-05T10:24:01.809Z,8.2
2019-05-05T10:25:05.921Z,8.1
2019-05-05T10:26:07.989Z,8.2
2019-05-05T10:27:09.855Z,8.2
2019-05-05T10:28:13.528Z,8.2
2019-05-05T10:29:15.611Z,8.3
2019-05-05T10:30:17.455Z,8.3
2019-05-05T10:31:19.317Z,8.5
2019-05-05T10:32:21.370Z,8.5
2019-05-05T10:33:25.336Z,8.7
2019-05-05T10:34:27.255Z,8.9
2019-05-05T10:35:29.357Z,9
2019-05-05T10:36:31.220Z,9.2
2019-05-05T10:37:34.841Z,9.1
2019-05-05T10:38:36.699Z,9.2
2019-05-05T10:39:38.563Z,9.2
2019-05-05T10:40:40.441Z,9.2
2019-05-05T10:41:43.980Z,9
2019-05-05T10:42:46.192Z,9.2
2019-05-05T10:43:48.052Z,9
2019-05-05T10:44:49.923Z,8.9
2019-05-05T10:45:51.788Z,8.6
2019-05-05T10:46:56.056Z,8.5
2019-05-05T10:47:57.625Z,8.3
2019-05-05T10:48:59.793Z,8.2
2019-05-05T10:50:01.875Z,8.1
2019-05-05T10:51:05.611Z,8
2019-05-05T10:52:07.479Z,7.6
2019-05-05T10:53:09.343Z,7.6
2019-05-05T10:54:11.206Z,7.4
2019-05-05T10:55:15.081Z,7.3
2019-05-05T10:56:16.945Z,7.4
2019-05-05T10:57:18.615Z,7.3
2019-05-05T10:58:20.485Z,7.4
2019-05-05T10:59:23.770Z,7.3
2019-05-05T11:00:25.887Z,7.3
2019-05-05T11:01:27.753Z,7.2
2019-05-05T11:02:29.348Z,7.3
2019-05-05T11:03:31.204Z,7.4
2019-05-05T11:04:35.211Z,7.4
2019-05-05T11:05:37.269Z,7.6
2019-05-05T11:06:39.150Z,7.5
2019-05-05T11:07:41.076Z,7.5
2019-05-05T11:08:44.886Z,7.6
2019-05-05T11:09:46.952Z,7.7
2019-05-05T11:10:49.012Z,7.7
2019-05-05T11:11:50.877Z,7.7
2019-05-05T11:12:53.515Z,7.9
2019-05-05T11:13:55.393Z,7.9
2019-05-05T11:14:57.253Z,8
2019-05-05T11:15:59.115Z,8.2
2019-05-05T11:17:00.978Z,8.2
2019-05-05T11:18:05.470Z,8.1
2019-05-05T11:19:07.342Z,8.3
2019-05-05T11:20:09.128Z,8.3
2019-05-05T11:21:11.179Z,8.3
2019-05-05T11:22:15.400Z,8.3
2019-05-05T11:23:17.250Z,8.2
2019-05-05T11:24:19.116Z,8.4
2019-05-05T11:25:20.718Z,8.5
2019-05-05T11:26:24.765Z,8.5
2019-05-05T11:27:26.617Z,8.3
2019-05-05T11:28:28.499Z,8.4
2019-05-05T11:29:30.344Z,8.4
2019-05-05T11:30:33.974Z,8.3
2019-05-05T11:31:35.888Z,8.4
2019-05-05T11:32:37.757Z,8.4
2019-05-05T11:33:39.628Z,8.4
2019-05-05T11:34:41.500Z,8.6
2019-05-05T11:35:45.331Z,8.6
2019-05-05T11:36:46.634Z,8.7
2019-05-05T11:37:48.504Z,8.7
2019-05-05T11:38:50.369Z,8.9
2019-05-05T11:39:54.306Z,9
2019-05-05T11:40:56.171Z,9
2019-05-05T11:41:58.040Z,9
2019-05-05T11:42:59.338Z,9.2
2019-05-05T11:44:01.203Z,9.2
2019-05-05T11:45:05.120Z,9.5
2019-05-05T11:46:06.990Z,9.5
2019-05-05T11:47:08.859Z,9.7
2019-05-05T11:48:10.726Z,9.9
2019-05-05T11:49:15.197Z,9.8
2019-05-05T11:50:16.785Z,9.7
2019-05-05T11:51:18.653Z,9.6
2019-05-05T11:52:20.245Z,9.6
2019-05-05T11:54:38.646Z,9.6
2019-05-05T11:55:40.511Z,9.5
2019-05-05T11:56:44.839Z,9.5
2019-05-05T11:57:46.695Z,9.4
2019-05-05T11:58:48.561Z,9.3
2019-05-05T11:59:50.790Z,9.3
2019-05-05T12:00:54.926Z,9.4
2019-05-05T12:01:56.966Z,9.3
2019-05-05T12:02:58.832Z,9.4
2019-05-05T12:04:00.132Z,9.3
2019-05-05T12:05:01.707Z,9.2
2019-05-05T12:06:05.513Z,9.2
2019-05-05T12:07:07.104Z,9.3
2019-05-05T12:08:08.971Z,9.2
2019-05-05T12:09:10.846Z,9.3
2019-05-05T12:10:14.562Z,9.2
2019-05-05T12:11:16.151Z,9.3
2019-05-05T12:12:18.032Z,9.3
2019-05-05T12:13:19.609Z,9.3
2019-05-05T12:14:24.110Z,9.3
2019-05-05T12:15:28.989Z,9.4
2019-05-05T12:16:30.855Z,9.4
2019-05-05T12:17:35.049Z,9.1
2019-05-05T12:18:36.623Z,9.1
2019-05-05T12:19:38.893Z,8.9
2019-05-05T12:20:55.417Z,8.8
2019-05-05T12:21:57.205Z,8.8
2019-05-05T12:22:59.272Z,8.7
2019-05-05T12:24:01.161Z,8.5
2019-05-05T12:25:05.229Z,8.5
2019-05-05T12:26:07.283Z,8.4
2019-05-05T12:27:09.146Z,8.5
2019-05-05T12:28:11.014Z,8.6
2019-05-05T12:29:14.779Z,8.6
2019-05-05T12:30:16.369Z,8.6
2019-05-05T12:31:18.237Z,8.7
2019-05-05T12:32:34.888Z,8.7
2019-05-05T12:33:36.740Z,8.7
2019-05-05T12:34:38.605Z,8.8
2019-05-05T12:35:40.471Z,8.8
2019-05-05T12:36:41.506Z,8.8
2019-05-05T12:37:45.400Z,8.9
2019-05-05T12:38:47.449Z,9
2019-05-05T12:39:49.312Z,9.1
2019-05-05T12:40:51.176Z,9.1
2019-05-05T12:41:54.908Z,9.2
2019-05-05T12:42:56.773Z,9
2019-05-05T12:43:58.976Z,9.3
2019-05-05T12:45:00.839Z,9.3
2019-05-05T12:46:05.081Z,9.3
2019-05-05T12:47:07.009Z,9.3
2019-05-05T12:48:08.874Z,9.2
2019-05-05T12:49:10.739Z,9.3
2019-05-05T12:50:14.421Z,9.5
2019-05-05T12:51:16.004Z,9.6
2019-05-05T12:52:17.870Z,9.6
2019-05-05T12:53:19.737Z,9.6
2019-05-05T12:54:21.793Z,9.6
2019-05-05T12:55:38.821Z,9.7
2019-05-05T12:56:45.476Z,9.6
2019-05-05T12:57:47.352Z,9.6
2019-05-05T12:58:49.218Z,9.7
2019-05-05T12:59:51.086Z,9.7
2019-05-05T13:02:11.583Z,10
2019-05-05T13:03:15.382Z,9.9
2019-05-05T13:04:17.247Z,9.8
2019-05-05T13:05:19.113Z,10
2019-05-05T13:06:20.979Z,10
2019-05-05T13:07:24.843Z,9.8
2019-05-05T13:08:26.706Z,9.9
2019-05-05T13:09:28.572Z,9.8
2019-05-05T13:10:30.160Z,10
2019-05-05T13:11:34.388Z,9.8
2019-05-05T13:12:36.294Z,9.8
2019-05-05T13:13:38.155Z,9.8
2019-05-05T13:14:55.087Z,9.8
2019-05-05T13:15:56.951Z,9.9
2019-05-05T13:16:58.529Z,9.8
2019-05-05T13:18:00.395Z,9.9
2019-05-05T13:19:04.443Z,9.9
2019-05-05T13:20:06.477Z,9.8
2019-05-05T13:21:08.319Z,9.9
2019-05-05T13:22:10.110Z,10
2019-05-05T13:23:11.983Z,9.8
2019-05-05T13:24:15.613Z,9.8
2019-05-05T13:25:17.481Z,9.9
2019-05-05T13:26:19.345Z,9.9
2019-05-05T13:27:20.946Z,9.9
2019-05-05T13:28:37.668Z,9.9
2019-05-05T13:29:39.557Z,9.9
2019-05-05T13:30:43.331Z,9.8
2019-05-05T13:31:45.351Z,9.9
2019-05-05T13:32:47.406Z,9.9
2019-05-05T13:33:48.704Z,9.8
2019-05-05T13:34:50.952Z,9.9
2019-05-05T13:35:54.890Z,9.9
2019-05-05T13:36:56.749Z,9.9
2019-05-05T13:37:58.615Z,10
2019-05-05T13:39:00.483Z,10.2
2019-05-05T13:40:04.239Z,10.2
2019-05-05T13:41:06.372Z,10.3
2019-05-05T13:42:08.250Z,10.4
2019-05-05T13:43:10.323Z,10.4
2019-05-05T13:44:12.189Z,10.5
2019-05-05T13:45:16.372Z,10.4
2019-05-05T13:46:18.141Z,10.4
2019-05-05T13:47:20.010Z,10.3
2019-05-05T13:48:22.094Z,10.3
2019-05-05T13:49:24.104Z,10.3
2019-05-05T13:50:26.156Z,10.3
2019-05-05T13:51:28.024Z,10.4
2019-05-05T13:52:29.890Z,10.5
2019-05-05T13:53:31.478Z,10.3
2019-05-05T13:54:35.647Z,10.5
2019-05-05T13:55:37.513Z,10.5
2019-05-05T13:56:39.385Z,10.6
2019-05-05T13:57:41.251Z,10.4
2019-05-05T13:58:45.278Z,10.5
2019-05-05T13:59:46.867Z,10.6
2019-05-05T14:00:48.443Z,10.6
2019-05-05T14:01:50.032Z,10.6
2019-05-05T14:02:51.911Z,10.6
2019-05-05T14:03:57.654Z,10.6
2019-05-05T14:04:59.595Z,10.7
2019-05-05T14:06:01.467Z,10.6
2019-05-05T14:07:05.646Z,10.6
2019-05-05T14:08:07.700Z,10.6
2019-05-05T14:09:09.274Z,10.7
2019-05-05T14:10:11.139Z,10.6
2019-05-05T14:11:15.264Z,10.7
2019-05-05T14:12:17.700Z,10.7
2019-05-05T14:13:19.564Z,10.6
2019-05-05T14:14:21.429Z,10.5
2019-05-05T14:15:25.642Z,10.6
2019-05-05T14:16:27.510Z,10.7
2019-05-05T14:17:29.570Z,10.7
2019-05-05T14:18:31.438Z,10.7
2019-05-05T14:19:34.028Z,10.8
2019-05-05T14:20:36.139Z,10.8
2019-05-05T14:21:38.017Z,10.8
2019-05-05T14:22:39.882Z,10.9
2019-05-05T14:23:43.460Z,10.8
2019-05-05T14:24:45.684Z,11
2019-05-05T14:25:47.785Z,10.9
2019-05-05T14:26:49.800Z,10.9
2019-05-05T14:28:06.332Z,10.9
2019-05-05T14:29:08.201Z,11
2019-05-05T14:31:26.600Z,10.9
2019-05-05T14:32:28.466Z,11.1
2019-05-05T14:33:30.335Z,10.9
2019-05-05T14:34:33.366Z,11
2019-05-05T14:35:35.302Z,11.1
2019-05-05T14:36:37.217Z,10.9
2019-05-05T14:37:39.084Z,10.8
2019-05-05T14:38:41.148Z,10.8
2019-05-05T14:39:57.692Z,10.8
2019-05-05T14:40:59.561Z,10.8
2019-05-05T14:42:01.146Z,10.9
2019-05-05T14:43:17.676Z,10.9
2019-05-05T14:44:19.541Z,11
2019-05-05T14:45:23.381Z,11.1
2019-05-05T14:46:25.100Z,11